Time;durP1;ratioP1;P1;durP2;ratioP2;P2;SDS_P1;SDS_P2;PMS_P1;PMS_P2;Temp;Humidity;BMP_temperature;BMP_pressure;BME280_temperature;BME280_humidity;BME280_pressure;Samples;Min_cycle;Max_cycle;Signal;HPM_P1;HPM_P2
2022/06/17 00:02:14;;;;;;;2.35;1.17;;;;;;;19.13;84.49;99045.78;5099405;28;20039;-76
2022/06/17 00:04:58;;;;;;;2.72;1.17;;;;;;;19.45;83.58;99050.47;5098787;28;20434;-75
2022/06/17 00:07:43;;;;;;;2.10;0.98;;;;;;;20.13;79.70;99051.66;5085397;28;20070;-75
2022/06/17 00:10:28;;;;;;;3.22;1.15;;;;;;;19.65;81.14;99063.53;5062934;28;20044;-75
2022/06/17 00:13:16;;;;;;;2.45;1.27;;;;;;;18.96;84.95;99058.88;5094429;28;20052;-74
2022/06/17 00:16:00;;;;;;;2.50;1.67;;;;;;;18.82;87.31;99058.41;5114019;28;20092;-75
2022/06/17 00:18:45;;;;;;;2.35;1.52;;;;;;;18.70;87.80;99057.00;5113754;28;20516;-75
2022/06/17 00:21:35;;;;;;;2.17;1.40;;;;;;;18.49;89.76;99060.72;5098780;28;20035;-74
2022/06/17 00:24:26;;;;;;;3.13;1.30;;;;;;;19.01;87.67;99061.91;5113253;28;20040;-74
2022/06/17 00:27:13;;;;;;;2.28;1.33;;;;;;;19.63;83.47;99059.38;5099122;28;20051;-76
2022/06/17 00:29:58;;;;;;;3.50;1.60;;;;;;;19.74;81.85;99064.44;5098576;28;20497;-73
2022/06/17 00:32:43;;;;;;;2.70;1.15;;;;;;;19.69;82.53;99064.91;5098587;28;20479;-73
2022/06/17 00:35:34;;;;;;;2.55;1.52;;;;;;;19.43;83.09;99059.59;5114120;28;20047;-73
2022/06/17 00:38:23;;;;;;;2.40;1.48;;;;;;;19.18;84.66;99057.59;5078380;28;20077;-74
2022/06/17 00:41:27;;;;;;;2.60;1.40;;;;;;;18.98;86.15;99061.38;5064665;28;20490;-76
2022/06/17 00:44:28;;;;;;;3.83;1.58;;;;;;;18.42;88.18;99060.53;5084466;28;20065;-74
2022/06/17 00:47:13;;;;;;;2.20;1.53;;;;;;;18.46;87.04;99056.56;5113181;28;20149;-75
2022/06/17 00:50:26;;;;;;;2.53;1.33;;;;;;;18.56;88.65;99061.81;5083660;28;20518;-73
2022/06/17 00:53:32;;;;;;;4.50;1.65;;;;;;;18.18;89.64;99059.25;5082980;28;20537;-75
2022/06/17 00:56:25;;;;;;;2.83;1.50;;;;;;;18.36;89.11;99065.59;5097948;28;20040;-73
2022/06/17 00:59:15;;;;;;;3.15;1.92;;;;;;;18.39;89.10;99075.88;5069412;28;20031;-74
2022/06/17 01:02:04;;;;;;;3.65;2.00;;;;;;;18.32;89.96;99068.53;5074098;28;20054;-75
2022/06/17 01:04:54;;;;;;;3.10;1.85;;;;;;;18.19;90.79;99065.38;5099731;28;20043;-75
2022/06/17 01:07:46;;;;;;;3.83;2.20;;;;;;;17.58;95.62;99065.72;5105727;28;20039;-76
2022/06/17 01:10:31;;;;;;;4.03;2.03;;;;;;;17.68;95.67;99058.59;5087263;28;20359;-74
2022/06/17 01:13:16;;;;;;;4.13;1.58;;;;;;;17.95;94.43;99053.47;5097604;28;20040;-74
2022/06/17 01:16:04;;;;;;;3.33;2.22;;;;;;;17.96;94.29;99055.13;5094992;28;20043;-74
2022/06/17 01:18:50;;;;;;;3.00;1.60;;;;;;;18.54;90.98;99055.81;5090622;28;20044;-74
2022/06/17 01:21:47;;;;;;;3.20;2.00;;;;;;;18.54;89.83;99050.50;5090911;28;20127;-75
2022/06/17 01:24:33;;;;;;;5.75;2.15;;;;;;;18.19;92.11;99060.94;5077874;28;20036;-75
2022/06/17 01:27:23;;;;;;;3.33;2.20;;;;;;;18.26;92.23;99055.88;5062292;28;20036;-74
2022/06/17 01:30:11;;;;;;;5.28;2.22;;;;;;;18.26;91.85;99057.69;5091160;28;20036;-74
2022/06/17 01:33:03;;;;;;;3.83;2.50;;;;;;;18.05;93.06;99053.44;5077138;28;20047;-75
2022/06/17 01:35:57;;;;;;;3.50;2.30;;;;;;;18.17;93.09;99051.44;5090457;28;20494;-74
2022/06/17 01:38:46;;;;;;;4.60;2.00;;;;;;;18.28;92.18;99056.53;5070884;28;20036;-74
2022/06/17 01:41:33;;;;;;;2.90;1.92;;;;;;;18.21;92.51;99056.28;5076527;28;20036;-75
2022/06/17 01:44:18;;;;;;;3.75;2.30;;;;;;;17.97;92.90;99064.75;5072235;28;20043;-75
2022/06/17 01:47:11;;;;;;;3.08;1.80;;;;;;;18.16;93.00;99068.34;5090987;28;20043;-74
2022/06/17 01:50:22;;;;;;;4.47;2.05;;;;;;;18.65;89.93;99062.75;5089697;28;20548;-73
2022/06/17 01:53:13;;;;;;;3.47;1.90;;;;;;;18.50;90.65;99061.56;5091949;28;20039;-73
2022/06/17 01:56:08;;;;;;;2.22;1.77;;;;;;;18.61;89.64;99061.38;5090271;28;20340;-73
2022/06/17 01:58:59;;;;;;;3.15;1.20;;;;;;;19.04;88.35;99068.72;5079653;28;20544;-72
2022/06/17 02:01:47;;;;;;;;;;;;;;;19.28;85.74;99081.41;5074879;28;20093;-72
2022/06/17 02:04:36;;;;;;;2.00;1.30;;;;;;;19.58;84.63;99079.25;5090968;28;20011;-73
2022/06/17 02:07:27;;;;;;;3.20;1.58;;;;;;;19.27;85.51;99082.41;5092189;28;20028;-72
2022/06/17 02:10:14;;;;;;;3.63;1.60;;;;;;;19.30;84.70;99079.44;5089944;28;20042;-74
2022/06/17 02:13:02;;;;;;;3.17;1.58;;;;;;;19.25;85.44;99080.88;5090643;28;20464;-74
2022/06/17 02:15:52;;;;;;;2.88;1.50;;;;;;;19.08;86.52;99076.22;5074362;28;20046;-73
2022/06/17 02:19:03;;;;;;;4.03;1.58;;;;;;;18.13;91.23;99072.13;5103710;28;20055;-74
2022/06/17 02:21:54;;;;;;;5.22;1.92;;;;;;;17.89;92.95;99081.38;5072291;28;20040;-74
2022/06/17 02:24:40;;;;;;;2.30;1.40;;;;;;;17.94;93.77;99083.59;5071743;28;20038;-74
2022/06/17 02:27:27;;;;;;;1.80;1.35;;;;;;;18.02;93.08;99078.41;5096573;28;20208;-73
2022/06/17 02:30:14;;;;;;;4.97;2.10;;;;;;;18.04;92.90;99086.19;5096675;28;20096;-74
2022/06/17 02:33:03;;;;;;;2.97;1.85;;;;;;;18.76;89.37;99082.06;5085504;28;20060;-72
2022/06/17 02:36:01;;;;;;;3.42;1.80;;;;;;;18.36;91.02;99092.09;5110956;28;20044;-72
2022/06/17 02:38:45;;;;;;;1.73;1.40;;;;;;;18.65;89.78;99086.63;5079435;28;20047;-73
2022/06/17 02:41:32;;;;;;;4.55;2.13;;;;;;;18.52;89.80;99084.34;5094361;28;20474;-72
2022/06/17 02:44:33;;;;;;;4.30;2.17;;;;;;;18.26;91.11;99079.75;5096809;28;20043;-72
2022/06/17 02:47:18;;;;;;;4.43;1.92;;;;;;;18.06;92.22;99090.41;5055488;28;20036;-70
2022/06/17 02:50:04;;;;;;;4.63;1.70;;;;;;;18.01;93.53;99097.09;5095780;28;20435;-72
2022/06/17 02:52:51;;;;;;;2.50;1.23;;;;;;;17.84;94.02;99092.41;5091232;28;20062;-73
2022/06/17 02:55:41;;;;;;;4.22;1.58;;;;;;;18.22;92.97;99087.16;5075215;28;20149;-73
2022/06/17 02:58:45;;;;;;;3.97;1.80;;;;;;;18.29;91.48;99083.91;5080137;28;20063;-73
2022/06/17 03:01:32;;;;;;;3.13;1.90;;;;;;;17.79;93.03;99077.94;5073715;28;20445;-73
2022/06/17 03:04:45;;;;;;;2.92;1.67;;;;;;;17.25;98.02;99081.94;5117530;28;20390;-73
2022/06/17 03:07:31;;;;;;;3.10;2.10;;;;;;;17.18;98.09;99073.75;5105665;28;20036;-73
2022/06/17 03:10:40;;;;;;;4.50;1.80;;;;;;;17.42;96.68;99072.44;5098059;28;20047;-73
2022/06/17 03:13:36;;;;;;;3.05;1.77;;;;;;;17.31;97.92;99075.25;5097277;28;20031;-73
2022/06/17 03:16:23;;;;;;;4.15;1.85;;;;;;;16.60;100.00;99081.47;5100889;28;20096;-73
2022/06/17 03:19:08;;;;;;;3.83;1.83;;;;;;;17.42;97.78;99091.00;5108859;28;20070;-73
2022/06/17 03:21:53;;;;;;;2.60;1.88;;;;;;;17.06;100.00;99090.69;5099837;28;20055;-75
2022/06/17 03:24:59;;;;;;;4.20;1.92;;;;;;;17.05;99.19;99097.81;5084295;28;20044;-74
2022/06/17 03:27:54;;;;;;;3.53;2.00;;;;;;;17.08;99.84;99099.34;5098233;28;20112;-75
2022/06/17 03:30:46;;;;;;;2.70;1.60;;;;;;;17.10;100.00;99100.88;5114391;28;20209;-75
2022/06/17 03:33:38;;;;;;;;;;;;;;;16.94;99.94;99100.59;5115351;28;20071;-75
2022/06/17 03:36:30;;;;;;;3.03;1.45;;;;;;;16.91;100.00;99117.56;5099312;28;19944;-75
2022/06/17 03:39:29;;;;;;;6.22;1.83;;;;;;;16.87;100.00;99124.13;5099153;28;20035;-74
2022/06/17 03:42:18;;;;;;;3.50;1.60;;;;;;;17.26;98.52;99127.78;5085155;28;20055;-74
2022/06/17 03:45:25;;;;;;;2.97;1.65;;;;;;;17.10;99.73;99127.34;5089393;28;20039;-73
2022/06/17 03:48:23;;;;;;;3.63;1.85;;;;;;;17.30;98.94;99121.25;5097896;28;20115;-74
2022/06/17 03:51:21;;;;;;;2.63;1.48;;;;;;;17.40;97.57;99134.50;5072406;28;20036;-74
2022/06/17 03:54:16;;;;;;;3.63;1.77;;;;;;;17.49;97.51;99139.75;5099014;28;20032;-73
2022/06/17 03:57:01;;;;;;;2.38;1.65;;;;;;;17.53;96.03;99137.66;5084193;28;20039;-74
2022/06/17 03:59:49;;;;;;;3.47;1.80;;;;;;;16.83;100.00;99143.88;5098782;28;20471;-74
2022/06/17 04:02:34;;;;;;;2.88;1.70;;;;;;;16.47;100.00;99147.84;5098719;28;20497;-75
2022/06/17 04:05:20;;;;;;;3.63;1.63;;;;;;;16.35;100.00;99147.09;5098190;28;20492;-73
2022/06/17 04:08:10;;;;;;;3.83;1.45;;;;;;;16.74;100.00;99148.19;5071123;28;20055;-73
2022/06/17 04:10:57;;;;;;;3.22;1.90;;;;;;;17.07;100.00;99161.19;5068756;28;20036;-75
2022/06/17 04:13:45;;;;;;;3.22;1.98;;;;;;;17.07;100.00;99156.72;5098801;28;20035;-72
2022/06/17 04:16:49;;;;;;;2.55;1.60;;;;;;;17.16;100.00;99159.53;5098283;28;20111;-74
2022/06/17 04:19:34;;;;;;;5.18;1.60;;;;;;;17.42;100.00;99154.53;5105756;28;20051;-72
2022/06/17 04:22:25;;;;;;;4.93;1.92;;;;;;;17.11;100.00;99163.47;5078476;28;20101;-74
2022/06/17 04:26:02;;;;;;;4.93;2.13;;;;;;;17.09;100.00;99157.47;5092181;28;20039;-73
2022/06/17 04:28:53;;;;;;;4.95;1.90;;;;;;;16.90;100.00;99152.94;5091514;28;20032;-71
2022/06/17 04:31:44;;;;;;;5.30;2.10;;;;;;;17.17;100.00;99161.25;5077964;28;20502;-71
2022/06/17 04:34:34;;;;;;;6.68;1.92;;;;;;;17.00;99.80;99160.91;5085804;28;20513;-73
2022/06/17 04:37:25;;;;;;;3.72;1.88;;;;;;;17.01;100.00;99159.09;5092089;28;20686;-75
2022/06/17 04:40:54;;;;;;;2.13;1.80;;;;;;;16.61;100.00;99167.75;5042743;28;20432;-73
2022/06/17 04:44:05;;;;;;;4.70;2.00;;;;;;;16.53;100.00;99167.63;5065373;28;20071;-74
2022/06/17 04:46:54;;;;;;;4.55;1.80;;;;;;;16.63;100.00;99168.47;5069524;28;20126;-73
2022/06/17 04:50:00;;;;;;;2.40;1.30;;;;;;;16.73;98.99;99167.66;5091802;28;20033;-74
2022/06/17 04:52:51;;;;;;;4.65;1.58;;;;;;;16.67;99.24;99173.50;5092491;28;20076;-74
2022/06/17 04:55:46;;;;;;;3.35;1.67;;;;;;;16.66;99.79;99172.69;5078363;28;20048;-73
2022/06/17 04:58:51;;;;;;;4.10;1.58;;;;;;;16.90;98.28;99186.50;5074450;28;20064;-73
2022/06/17 05:01:36;;;;;;;4.32;1.50;;;;;;;16.58;98.72;99188.38;5091900;28;20032;-74
2022/06/17 05:04:32;;;;;;;2.40;1.60;;;;;;;16.46;100.00;99191.13;5080543;28;20043;-74
2022/06/17 05:07:21;;;;;;;3.47;1.98;;;;;;;16.50;100.00;99195.16;5081337;28;20492;-74
2022/06/17 05:10:16;;;;;;;3.22;1.90;;;;;;;16.68;100.00;99199.81;5100759;28;20044;-74
2022/06/17 05:13:06;;;;;;;4.97;1.40;;;;;;;16.64;100.00;99201.06;5078821;28;20063;-73
2022/06/17 05:15:51;;;;;;;2.58;1.30;;;;;;;16.73;100.00;99202.03;5091373;28;20052;-71
2022/06/17 05:18:36;;;;;;;4.63;2.17;;;;;;;16.73;99.50;99205.53;5091427;28;20101;-74
2022/06/17 05:21:27;;;;;;;4.13;2.25;;;;;;;16.60;100.00;99212.84;5068218;28;20040;-74
2022/06/17 05:24:32;;;;;;;3.50;2.60;;;;;;;16.49;100.00;99219.94;5083806;28;20438;-73
2022/06/17 05:27:17;;;;;;;5.68;2.42;;;;;;;16.63;100.00;99224.03;5096942;28;20032;-73
2022/06/17 05:30:03;;;;;;;5.30;2.00;;;;;;;17.28;99.53;99229.94;5092996;28;20035;-74
2022/06/17 05:32:54;;;;;;;4.20;2.70;;;;;;;17.67;96.81;99230.91;5087564;28;20044;-74
2022/06/17 05:35:41;;;;;;;5.47;3.30;;;;;;;17.57;97.65;99225.63;5084062;28;20044;-74
2022/06/17 05:38:30;;;;;;;5.43;3.45;;;;;;;17.83;97.73;99223.25;5089866;28;20467;-74
2022/06/17 05:41:20;;;;;;;6.95;3.72;;;;;;;17.97;96.97;99226.41;5087167;28;20039;-73
2022/06/17 05:44:07;;;;;;;7.53;4.38;;;;;;;17.86;98.52;99222.13;5085845;28;20044;-72
2022/06/17 05:47:02;;;;;;;8.68;3.58;;;;;;;17.91;97.83;99229.63;5090443;28;20046;-74
2022/06/17 05:50:10;;;;;;;6.03;2.65;;;;;;;17.87;98.34;99241.50;5085154;28;20074;-74
2022/06/17 05:53:16;;;;;;;10.68;4.05;;;;;;;17.68;98.34;99244.03;5079897;28;20044;-73
2022/06/17 05:56:08;;;;;;;9.48;4.28;;;;;;;17.74;97.99;99245.25;5065667;28;20036;-73
2022/06/17 05:58:55;;;;;;;6.45;4.10;;;;;;;18.04;96.89;99250.53;5089858;28;20052;-73
2022/06/17 06:01:40;;;;;;;7.50;4.03;;;;;;;18.64;93.59;99259.22;5076468;28;20028;-73
2022/06/17 06:04:26;;;;;;;6.28;4.07;;;;;;;18.55;94.02;99256.47;5082417;28;20384;-73
2022/06/17 06:07:11;;;;;;;7.15;5.03;;;;;;;18.21;94.56;99252.47;5090147;28;20028;-73
2022/06/17 06:09:58;;;;;;;6.63;4.60;;;;;;;18.08;96.85;99252.75;5088668;28;20062;-73
2022/06/17 06:13:00;;;;;;;6.45;4.15;;;;;;;18.72;92.87;99267.25;5089925;28;20040;-70
2022/06/17 06:15:57;;;;;;;6.90;4.70;;;;;;;18.75;91.49;99258.19;5089519;28;20047;-73
2022/06/17 06:18:47;;;;;;;5.65;4.07;;;;;;;18.84;91.57;99255.50;5062570;28;20375;-73
2022/06/17 06:21:35;;;;;;;7.38;5.20;;;;;;;18.81;91.56;99249.63;5070133;28;20415;-72
2022/06/17 06:24:20;;;;;;;6.63;4.22;;;;;;;18.93;91.81;99252.94;5070066;28;20040;-71
2022/06/17 06:27:05;;;;;;;7.13;5.00;;;;;;;19.10;90.05;99250.47;5071706;28;20036;-77
2022/06/17 06:29:56;;;;;;;8.32;4.65;;;;;;;18.93;90.75;99263.56;5051403;28;20472;-71
2022/06/17 06:32:59;;;;;;;6.10;3.95;;;;;;;18.97;90.73;99262.25;5070582;28;20040;-72
2022/06/17 06:35:46;;;;;;;6.15;4.25;;;;;;;19.18;89.69;99282.44;5086786;28;20031;-77
2022/06/17 06:38:32;;;;;;;6.03;4.07;;;;;;;19.20;88.28;99278.66;5094781;28;20067;-72
2022/06/17 06:41:21;;;;;;;7.22;4.68;;;;;;;19.18;87.97;99274.47;5084747;28;20107;-71
2022/06/17 06:44:07;;;;;;;7.10;4.22;;;;;;;19.49;87.50;99279.44;5078113;28;20044;-74
2022/06/17 06:47:02;;;;;;;6.93;4.20;;;;;;;19.82;84.37;99281.56;5086412;28;20036;-72
2022/06/17 06:50:13;;;;;;;6.90;3.90;;;;;;;19.62;84.35;99276.41;5074929;28;20048;-70
2022/06/17 06:52:58;;;;;;;6.82;3.85;;;;;;;19.76;83.71;99282.19;5079615;28;20036;-71
2022/06/17 06:55:43;;;;;;;8.15;3.97;;;;;;;19.91;82.90;99274.53;5093834;28;20040;-73
2022/06/17 06:58:29;;;;;;;7.78;4.03;;;;;;;20.06;82.35;99282.78;5066542;28;20047;-72
2022/06/17 07:01:14;;;;;;;8.05;3.75;;;;;;;20.22;80.29;99278.59;5078430;28;20040;-73
2022/06/17 07:03:59;;;;;;;5.38;4.18;;;;;;;20.25;80.42;99284.44;5094495;28;20040;-70
2022/06/17 07:06:44;;;;;;;9.77;4.55;;;;;;;20.43;80.82;99279.03;5087265;28;20044;-71
2022/06/17 07:09:29;;;;;;;6.10;3.67;;;;;;;20.33;77.95;99288.97;5106647;28;20103;-72
2022/06/17 07:12:13;;;;;;;5.95;3.47;;;;;;;20.78;76.14;99291.53;5087148;28;20438;-71
2022/06/17 07:14:58;;;;;;;5.25;3.33;;;;;;;21.38;72.59;99283.66;5056166;28;20487;-71
2022/06/17 07:18:09;;;;;;;6.70;3.67;;;;;;;21.24;73.05;99288.59;5094796;28;20028;-73
2022/06/17 07:20:57;;;;;;;5.38;3.60;;;;;;;21.34;71.83;99290.28;5115339;28;20455;-73
2022/06/17 07:23:44;;;;;;;6.97;3.35;;;;;;;21.32;72.37;99290.44;5114680;28;20059;-71
2022/06/17 07:26:29;;;;;;;7.45;3.22;;;;;;;21.86;70.95;99293.72;5114327;28;20047;-70
2022/06/17 07:29:13;;;;;;;3.58;2.83;;;;;;;22.26;68.71;99289.34;5113819;28;20035;-72
2022/06/17 07:32:00;;;;;;;5.80;3.38;;;;;;;22.19;67.86;99288.38;5106955;28;20032;-70
2022/06/17 07:34:45;;;;;;;7.18;2.67;;;;;;;22.35;68.80;99284.84;5086079;28;20035;-61
2022/06/17 07:40:34;;;;;;;5.13;3.42;;;;;;;21.27;71.70;99301.59;5109797;28;20044;-73
2022/06/17 07:43:19;;;;;;;9.38;3.03;;;;;;;21.73;70.20;99305.69;5105072;28;20052;-66
2022/06/17 07:46:05;;;;;;;6.15;3.63;;;;;;;21.82;70.88;99301.19;5103804;28;20036;-66
2022/06/17 07:48:50;;;;;;;6.10;4.35;;;;;;;21.66;71.27;99309.97;5092082;28;20040;-66
2022/06/17 07:51:36;;;;;;;6.03;3.55;;;;;;;22.44;68.62;99307.00;5107734;28;20103;-65
2022/06/17 07:54:22;;;;;;;7.30;4.20;;;;;;;22.11;68.58;99304.38;5088085;28;20042;-64
2022/06/17 07:57:07;;;;;;;5.28;3.75;;;;;;;22.33;70.36;99307.34;5110657;28;20478;-67
2022/06/17 07:59:52;;;;;;;4.85;3.05;;;;;;;22.92;71.67;99319.59;5114178;28;20043;-66
2022/06/17 08:02:36;;;;;;;6.15;3.92;;;;;;;22.00;71.48;99322.38;5113938;28;20043;-66
2022/06/17 08:05:21;;;;;;;6.55;3.10;;;;;;;22.47;72.15;99320.03;5114741;28;20031;-67
2022/06/17 08:08:08;;;;;;;4.30;2.75;;;;;;;23.49;66.92;99327.53;5102848;28;20044;-66
2022/06/17 08:10:56;;;;;;;7.70;3.60;;;;;;;23.26;66.39;99325.63;5098564;28;20372;-65
2022/06/17 08:13:42;;;;;;;8.25;2.80;;;;;;;24.05;64.67;99328.31;5114157;28;20031;-65
2022/06/17 08:16:27;;;;;;;8.45;3.40;;;;;;;23.26;67.64;99338.97;5101456;28;20050;-66
2022/06/17 08:19:11;;;;;;;8.95;3.72;;;;;;;23.14;67.38;99333.19;5113163;28;20054;-66
2022/06/17 08:21:57;;;;;;;5.88;3.15;;;;;;;23.66;63.70;99344.31;5114038;28;20504;-65
2022/06/17 08:24:42;;;;;;;6.30;3.58;;;;;;;22.57;69.27;99346.50;5098557;28;20054;-66
2022/06/17 08:27:27;;;;;;;4.20;3.00;;;;;;;23.70;64.51;99350.13;5113940;28;20079;-65
2022/06/17 08:30:13;;;;;;;3.85;3.25;;;;;;;24.22;62.12;99356.63;5113819;28;20050;-65
2022/06/17 08:32:58;;;;;;;4.35;2.97;;;;;;;23.61;63.65;99358.22;5102312;28;20048;-65
2022/06/17 08:35:49;;;;;;;3.55;2.45;;;;;;;24.02;66.23;99356.28;5097833;28;20043;-62
2022/06/17 08:38:38;;;;;;;3.58;2.67;;;;;;;24.61;64.18;99351.25;5086923;28;20039;-65
2022/06/17 08:41:27;;;;;;;6.82;2.90;;;;;;;24.33;61.06;99358.06;5110092;28;20088;-65
2022/06/17 08:44:32;;;;;;;7.65;3.05;;;;;;;24.60;60.16;99358.47;5096465;28;20040;-67
2022/06/17 08:47:33;;;;;;;4.05;1.95;;;;;;;25.86;54.87;99363.13;5111802;28;20038;-65
2022/06/17 08:51:08;;;;;;;4.32;2.30;;;;;;;25.45;56.24;99364.53;5102490;28;20048;-65
2022/06/17 08:53:56;;;;;;;9.85;2.35;;;;;;;25.73;55.17;99369.19;5097777;28;20043;-62
2022/06/17 08:57:11;;;;;;;5.10;2.05;;;;;;;25.96;53.21;99378.94;5112944;28;20072;-66
2022/06/17 08:59:59;;;;;;;5.30;2.58;;;;;;;25.14;50.53;99366.44;5110422;28;20051;-66
2022/06/17 09:02:53;;;;;;;6.88;1.92;;;;;;;25.99;52.61;99383.06;5104538;28;20039;-66
2022/06/17 09:05:41;;;;;;;5.50;1.70;;;;;;;25.45;48.74;99377.94;5103554;28;20046;-67
2022/06/17 09:09:11;;;;;;;2.45;1.55;;;;;;;25.23;48.71;99388.63;5122554;28;20039;-65
2022/06/17 09:12:10;;;;;;;3.45;1.95;;;;;;;25.89;50.20;99388.75;5097442;28;20031;-66
2022/06/17 09:15:07;;;;;;;1.92;1.52;;;;;;;25.40;48.08;99383.88;5113059;28;20075;-64
2022/06/17 09:18:17;;;;;;;5.78;1.65;;;;;;;26.38;49.17;99381.78;5097341;28;20072;-64
2022/06/17 09:21:12;;;;;;;2.97;1.73;;;;;;;26.21;47.93;99389.28;5113293;28;20043;-64
2022/06/17 09:24:04;;;;;;;4.03;1.60;;;;;;;26.40;46.68;99392.34;5112896;28;20031;-66
2022/06/17 09:27:21;;;;;;;5.97;1.73;;;;;;;26.22;47.48;99395.44;5112924;28;20063;-65
2022/06/17 09:30:15;;;;;;;4.70;1.70;;;;;;;27.89;48.26;99393.13;5089352;28;20027;-65
2022/06/17 09:33:42;;;;;;;7.47;1.90;;;;;;;26.48;46.79;99388.69;5107458;28;20043;-66
2022/06/17 09:36:46;;;;;;;5.40;1.80;;;;;;;26.13;45.63;99405.50;5094526;28;20048;-66
2022/06/17 09:39:43;;;;;;;4.00;1.60;;;;;;;26.33;45.55;99408.38;5109574;28;20106;-65
2022/06/17 09:42:40;;;;;;;2.72;1.67;;;;;;;26.49;47.59;99398.41;5112538;28;20437;-66
2022/06/17 09:45:43;;;;;;;3.97;1.55;;;;;;;26.81;45.10;99399.69;5092271;28;20036;-65
2022/06/17 09:48:47;;;;;;;4.57;2.00;;;;;;;26.43;48.16;99400.00;5108315;28;20036;-66
2022/06/17 09:51:55;;;;;;;4.72;1.80;;;;;;;25.67;47.08;99405.66;5100775;28;20040;-64
2022/06/17 09:54:46;;;;;;;4.18;1.80;;;;;;;26.85;46.20;99410.03;5090189;28;20077;-66
2022/06/17 09:57:40;;;;;;;4.60;1.95;;;;;;;25.59;51.63;99419.97;5113517;28;20036;-66
2022/06/17 10:00:42;;;;;;;2.95;1.50;;;;;;;25.95;47.94;99412.16;5113104;28;20040;-65
2022/06/17 10:03:39;;;;;;;4.07;1.50;;;;;;;27.06;48.44;99404.59;5112926;28;20043;-66
2022/06/17 10:06:56;;;;;;;3.30;1.63;;;;;;;26.88;44.51;99404.25;5103314;28;20213;-67
2022/06/17 10:09:56;;;;;;;3.70;1.55;;;;;;;25.77;48.19;99421.44;5114514;28;20070;-66
2022/06/17 10:12:56;;;;;;;2.95;1.63;;;;;;;26.63;46.93;99418.13;5112358;28;20039;-64
2022/06/17 10:19:11;;;;;;;2.80;1.58;;;;;;;26.98;45.41;99409.28;5113538;28;20051;-64
2022/06/17 10:22:44;;;;;;;3.08;1.63;;;;;;;27.01;43.89;99406.22;5112753;28;20085;-67
2022/06/17 10:25:40;;;;;;;2.05;1.52;;;;;;;26.96;43.94;99411.31;4995346;28;20054;-66
2022/06/17 10:29:03;;;;;;;1.80;1.30;;;;;;;26.20;46.07;99419.81;5105577;28;20067;-66
2022/06/17 10:31:50;;;;;;;1.77;1.38;;;;;;;28.18;42.88;99412.63;5104798;28;20040;-66
2022/06/17 10:34:41;;;;;;;4.55;1.60;;;;;;;26.89;46.67;99419.34;5111731;28;20043;-64
2022/06/17 10:37:32;;;;;;;35.25;7.80;;;;;;;27.98;44.94;99409.91;5078652;28;20097;-64
2022/06/17 10:40:23;;;;;;;4.22;2.28;;;;;;;27.78;41.41;99416.91;5104339;28;20454;-63
2022/06/17 10:43:17;;;;;;;5.55;2.05;;;;;;;27.58;41.14;99424.06;5099639;28;20032;-63
2022/06/17 10:46:03;;;;;;;3.92;2.67;;;;;;;27.46;41.23;99413.88;5111326;28;20043;-67
2022/06/17 10:49:17;;;;;;;8.55;2.50;;;;;;;26.63;45.86;99413.59;5111018;28;20439;-65
2022/06/17 10:52:14;;;;;;;7.13;2.45;;;;;;;26.97;48.56;99408.44;5111942;28;20031;-66
2022/06/17 10:55:03;;;;;;;7.45;2.05;;;;;;;27.70;41.18;99405.50;5111100;28;20081;-66
2022/06/17 10:58:19;;;;;;;7.40;1.80;;;;;;;29.20;41.03;99394.50;5081993;28;20432;-68
2022/06/17 11:01:15;;;;;;;4.10;1.58;;;;;;;29.01;37.48;99405.16;5110234;28;20496;-68
2022/06/17 11:04:24;;;;;;;3.05;1.75;;;;;;;27.98;38.29;99399.97;5109418;28;20104;-67
2022/06/17 11:07:20;;;;;;;2.42;1.10;;;;;;;28.16;41.64;99398.53;5095935;28;20039;-65
2022/06/17 11:10:13;;;;;;;2.33;1.30;;;;;;;27.96;38.42;99403.91;5121362;28;20061;-67
2022/06/17 11:13:04;;;;;;;1.70;1.20;;;;;;;28.51;37.25;99403.75;5100064;28;20122;-70
2022/06/17 11:15:57;;;;;;;4.43;1.27;;;;;;;29.08;39.83;99402.44;5096502;28;20033;-65
2022/06/17 11:18:45;;;;;;;2.65;1.35;;;;;;;29.14;39.88;99409.69;5096660;28;20482;-65
2022/06/17 11:21:37;;;;;;;4.00;1.30;;;;;;;28.28;37.30;99402.25;5111812;28;20051;-64
2022/06/17 11:24:27;;;;;;;3.33;1.20;;;;;;;28.77;36.32;99404.75;5085915;28;20047;-63
2022/06/17 11:27:14;;;;;;;3.65;1.25;;;;;;;28.48;37.00;99406.06;5112339;28;20051;-62
2022/06/17 11:30:29;;;;;;;2.97;1.17;;;;;;;29.53;36.28;99395.41;5113775;28;20063;-62
2022/06/17 11:33:27;;;;;;;1.50;1.10;;;;;;;27.65;37.83;99393.44;5115387;28;20047;-66
2022/06/17 11:36:17;;;;;;;5.57;1.70;;;;;;;26.62;40.60;99398.50;5105561;28;20032;-64
2022/06/17 11:39:22;;;;;;;;;;;;;;;26.42;39.71;99409.09;5115277;28;20061;-66
2022/06/17 11:42:17;;;;;;;2.90;1.40;;;;;;;25.83;40.95;99404.59;5110015;28;19919;-63
2022/06/17 11:45:05;;;;;;;3.67;1.15;;;;;;;27.61;38.16;99405.66;5097206;28;20089;-64
2022/06/17 11:47:57;;;;;;;2.00;1.25;;;;;;;27.75;37.89;99400.31;5112124;28;20040;-65
2022/06/17 11:51:18;;;;;;;3.53;1.30;;;;;;;27.82;37.43;99395.81;5114667;28;20463;-65
2022/06/17 11:54:17;;;;;;;2.75;1.08;;;;;;;27.04;37.77;99389.69;5054723;28;20036;-72
2022/06/17 11:57:21;;;;;;;3.72;1.27;;;;;;;27.56;36.29;99394.69;5094827;28;20079;-68
2022/06/17 12:00:25;;;;;;;3.22;1.05;;;;;;;26.78;38.11;99405.41;5114577;28;20050;-63
2022/06/17 12:03:09;;;;;;;3.60;1.77;;;;;;;24.57;42.80;99411.53;5097216;28;20043;-69
2022/06/17 12:06:02;;;;;;;1.92;1.10;;;;;;;26.24;39.74;99412.22;5113891;28;20039;-66
2022/06/17 12:08:55;;;;;;;5.38;1.30;;;;;;;28.08;35.96;99399.56;5119286;28;20039;-66
2022/06/17 12:11:54;;;;;;;2.38;1.00;;;;;;;26.96;35.46;99387.97;5096755;28;20100;-67
2022/06/17 12:14:49;;;;;;;5.28;2.25;;;;;;;25.94;38.40;99384.47;5106768;28;20055;-67
2022/06/17 12:17:38;;;;;;;2.13;1.10;;;;;;;27.70;36.25;99392.88;5112337;28;20093;-68
2022/06/17 12:21:14;;;;;;;2.97;1.10;;;;;;;28.12;33.74;99383.84;5112836;28;20032;-68
2022/06/17 12:24:17;;;;;;;1.73;1.10;;;;;;;27.65;35.51;99379.16;5009782;28;20041;-66
2022/06/17 12:27:24;;;;;;;3.33;1.00;;;;;;;25.95;36.61;99383.44;5108736;28;20028;-64
2022/06/17 12:30:17;;;;;;;1.98;0.90;;;;;;;24.60;39.16;99381.72;5113171;28;20078;-68
2022/06/17 12:33:27;;;;;;;1.27;0.68;;;;;;;23.65;41.30;99397.97;5091146;28;20044;-67
2022/06/17 12:36:27;;;;;;;1.15;0.73;;;;;;;24.44;39.50;99394.25;5114187;28;20028;-66
2022/06/17 12:40:07;;;;;;;0.70;0.60;;;;;;;25.96;36.30;99386.97;5111969;28;20036;-68
2022/06/17 12:43:09;;;;;;;1.35;0.80;;;;;;;26.34;34.55;99379.69;5030795;28;20045;-68
2022/06/17 12:45:59;;;;;;;1.50;0.80;;;;;;;26.98;34.84;99377.03;5110537;28;20050;-67
2022/06/17 12:53:13;;;;;;;1.77;0.77;;;;;;;27.57;33.38;99385.56;5112808;28;20062;-67
2022/06/17 12:55:29;;;;;;;5.65;1.00;;;;;;;27.56;34.11;99373.16;5112682;28;20092;-67
2022/06/17 12:58:28;;;;;;;2.30;0.90;;;;;;;28.16;32.04;99371.63;5098214;28;20052;-69
2022/06/17 13:01:18;;;;;;;5.05;0.63;;;;;;;28.05;32.13;99367.69;5113331;28;21485;-67
2022/06/17 13:04:27;;;;;;;2.13;0.70;;;;;;;27.89;32.15;99372.41;5113124;28;20039;-72
2022/06/17 13:07:25;;;;;;;3.42;0.80;;;;;;;27.11;32.54;99354.78;5108222;28;20036;-69
2022/06/17 13:13:32;;;;;;;3.35;0.93;;;;;;;26.87;32.31;99355.06;5113904;28;20043;-68
2022/06/17 13:16:21;;;;;;;1.52;0.60;;;;;;;27.08;31.69;99345.25;5113356;28;20118;-67
2022/06/17 13:19:15;;;;;;;2.22;0.70;;;;;;;26.98;33.04;99353.66;5111714;28;20067;-68
2022/06/17 13:22:12;;;;;;;2.00;0.63;;;;;;;26.61;33.39;99355.72;5111355;28;20035;-68
2022/06/17 13:25:23;;;;;;;1.30;0.93;;;;;;;26.62;33.26;99347.44;5113237;28;20459;-68
2022/06/17 13:28:27;;;;;;;1.35;0.75;;;;;;;27.26;32.20;99343.88;5088831;28;20038;-65
2022/06/17 13:31:27;;;;;;;1.13;0.85;;;;;;;26.77;33.64;99346.50;5113059;28;20471;-66
2022/06/17 13:34:21;;;;;;;2.55;0.68;;;;;;;27.61;32.50;99343.78;5112119;28;20466;-66
2022/06/17 13:37:16;;;;;;;1.23;0.70;;;;;;;26.46;33.29;99342.41;5111973;28;20395;-68
2022/06/17 13:40:15;;;;;;;2.08;0.90;;;;;;;27.34;31.57;99337.50;5083327;28;20048;-68
2022/06/17 13:43:06;;;;;;;1.58;0.70;;;;;;;27.74;32.08;99336.81;5097963;28;20031;-68
2022/06/17 13:46:13;;;;;;;6.32;1.60;;;;;;;26.70;32.44;99341.13;5096056;28;20072;-65
2022/06/17 13:49:10;;;;;;;1.95;0.82;;;;;;;27.35;32.29;99341.84;5112401;28;20039;-70
2022/06/17 13:52:19;;;;;;;2.17;0.93;;;;;;;27.39;32.16;99343.09;5097326;28;20048;-66
2022/06/17 13:55:15;;;;;;;2.90;1.00;;;;;;;27.60;30.56;99327.84;5090049;28;20070;-66